createdAt,value
2019-05-01T00:01:10.830Z,6.67
2019-05-01T00:03:55.533Z,7.17
2019-05-01T00:06:26.606Z,5.87
2019-05-01T00:08:53.627Z,6.67
2019-05-01T00:11:20.776Z,6.60
2019-05-01T00:13:47.803Z,6.80
2019-05-01T00:16:14.832Z,6.70
2019-05-01T00:18:42.004Z,6.63
2019-05-01T00:21:09.037Z,6.37
2019-05-01T00:23:36.138Z,5.53
2019-05-01T00:26:03.267Z,6.43
2019-05-01T00:28:30.292Z,6.57
2019-05-01T00:30:57.319Z,6.80
2019-05-01T00:33:24.390Z,6.50
2019-05-01T00:35:51.417Z,6.40
2019-05-01T00:38:18.437Z,6.67
2019-05-01T00:40:45.511Z,6.27
2019-05-01T00:43:12.586Z,6.50
2019-05-01T00:45:39.634Z,6.60
2019-05-01T00:48:06.660Z,6.70
2019-05-01T00:50:33.726Z,5.90
2019-05-01T00:53:00.759Z,6.43
2019-05-01T00:55:45.610Z,6.47
2019-05-01T00:58:32.043Z,6.30
2019-05-01T01:01:16.731Z,6.17
2019-05-01T01:03:43.742Z,6.90
2019-05-01T01:06:10.916Z,6.03
2019-05-01T01:08:37.963Z,6.30
2019-05-01T01:11:05.039Z,6.50
2019-05-01T01:13:32.108Z,6.37
2019-05-01T01:15:59.121Z,6.27
2019-05-01T01:18:26.311Z,5.30
2019-05-01T01:20:53.427Z,6.23
2019-05-01T01:23:20.463Z,5.87
2019-05-01T01:25:47.491Z,5.97
2019-05-01T01:28:14.542Z,5.60
2019-05-01T01:30:41.576Z,6.10
2019-05-01T01:33:08.739Z,5.93
2019-05-01T01:35:35.789Z,5.93
2019-05-01T01:38:02.823Z,6.00
2019-05-01T01:40:29.909Z,6.60
2019-05-01T01:42:59.549Z,5.70
2019-05-01T01:45:52.109Z,6.27
2019-05-01T01:48:19.167Z,5.20
2019-05-01T01:50:46.214Z,5.63
2019-05-01T01:53:14.071Z,5.13
2019-05-01T01:55:41.090Z,6.00
2019-05-01T01:58:08.134Z,5.70
2019-05-01T02:00:46.583Z,6.03
2019-05-01T02:03:13.709Z,6.37
2019-05-01T02:05:42.766Z,6.50
2019-05-01T02:08:09.784Z,6.97
2019-05-01T02:10:42.874Z,5.70
2019-05-01T02:13:05.700Z,5.20
2019-05-01T02:15:32.754Z,5.70
2019-05-01T02:17:59.825Z,5.50
2019-05-01T02:20:26.849Z,5.70
2019-05-01T02:22:53.902Z,5.53
2019-05-01T02:25:21.540Z,5.47
2019-05-01T02:28:06.659Z,4.97
2019-05-01T02:30:33.665Z,5.97
2019-05-01T02:33:00.711Z,6.30
2019-05-01T02:35:30.317Z,5.90
2019-05-01T02:37:56.596Z,5.43
2019-05-01T02:40:41.698Z,5.67
2019-05-01T02:43:08.973Z,4.50
2019-05-01T02:45:36.006Z,5.40
2019-05-01T02:48:03.049Z,5.50
2019-05-01T02:50:30.066Z,5.37
2019-05-01T02:52:57.099Z,6.50
2019-05-01T02:55:33.073Z,5.57
2019-05-01T02:58:00.110Z,6.27
2019-05-01T03:00:27.163Z,5.80
2019-05-01T03:02:54.336Z,5.50
2019-05-01T03:05:21.398Z,5.33
2019-05-01T03:07:48.456Z,5.20
2019-05-01T03:10:15.492Z,5.40
2019-05-01T03:12:42.908Z,6.33
2019-05-01T03:15:10.017Z,5.20
2019-05-01T03:18:02.221Z,5.10
2019-05-01T03:21:06.485Z,5.73
2019-05-01T03:23:39.903Z,5.97
2019-05-01T03:26:06.999Z,4.60
2019-05-01T03:28:34.029Z,5.63
2019-05-01T03:31:01.046Z,5.73
2019-05-01T03:33:28.133Z,5.50
2019-05-01T03:35:55.269Z,4.73
2019-05-01T03:38:22.427Z,5.30
2019-05-01T03:40:49.498Z,5.77
2019-05-01T03:43:16.554Z,5.10
2019-05-01T03:45:43.561Z,4.90
2019-05-01T03:48:10.612Z,4.97
2019-05-01T03:50:37.949Z,4.70
2019-05-01T03:53:04.978Z,5.70
2019-05-01T03:55:32.004Z,5.67
2019-05-01T03:57:59.157Z,5.30
2019-05-01T04:00:51.532Z,5.27
2019-05-01T04:03:36.990Z,4.90
2019-05-01T04:06:04.032Z,5.23
2019-05-01T04:08:31.074Z,5.13
2019-05-01T04:10:58.100Z,4.80
2019-05-01T04:13:25.147Z,4.63
2019-05-01T04:15:52.674Z,4.20
2019-05-01T04:18:19.744Z,5.33
2019-05-01T04:20:46.776Z,4.20
2019-05-01T04:23:13.800Z,4.90
2019-05-01T04:25:40.899Z,4.80
2019-05-01T04:28:28.392Z,4.97
2019-05-01T04:31:01.537Z,5.53
2019-05-01T04:33:29.393Z,4.70
2019-05-01T04:36:01.450Z,4.30
2019-05-01T04:38:28.453Z,4.10
2019-05-01T04:40:55.504Z,4.93
2019-05-01T04:43:22.582Z,4.90
2019-05-01T04:45:49.651Z,4.63
2019-05-01T04:48:16.670Z,3.90
2019-05-01T04:50:43.678Z,4.77
2019-05-01T04:53:10.726Z,4.57
2019-05-01T04:55:38.183Z,4.40
2019-05-01T04:58:05.227Z,4.40
2019-05-01T05:00:32.260Z,3.73
2019-05-01T05:03:04.916Z,4.10
2019-05-01T05:05:32.020Z,4.10
2019-05-01T05:07:59.175Z,4.73
2019-05-01T05:10:26.207Z,4.47
2019-05-01T05:13:21.308Z,4.40
2019-05-01T05:16:10.345Z,4.10
2019-05-01T05:18:37.389Z,4.23
2019-05-01T05:21:04.417Z,3.90
2019-05-01T05:23:31.479Z,4.43
2019-05-01T05:25:58.499Z,4.60
2019-05-01T05:28:25.859Z,4.30
2019-05-01T05:30:52.919Z,4.30
2019-05-01T05:33:19.931Z,5.37
2019-05-01T05:35:46.978Z,4.57
2019-05-01T05:38:39.274Z,4.97
2019-05-01T05:41:06.796Z,4.70
2019-05-01T05:43:33.815Z,4.70
2019-05-01T05:46:00.874Z,3.93
2019-05-01T05:48:27.912Z,4.60
2019-05-01T05:51:15.546Z,4.17
2019-05-01T05:53:43.315Z,4.40
2019-05-01T05:56:13.908Z,4.10
2019-05-01T05:58:44.970Z,4.60
2019-05-01T06:01:40.606Z,3.90
2019-05-01T06:04:33.027Z,4.37
2019-05-01T06:07:22.670Z,4.10
2019-05-01T06:10:00.894Z,4.10
2019-05-01T06:12:41.656Z,4.30
2019-05-01T06:15:44.364Z,4.33
2019-05-01T06:18:34.794Z,3.93
2019-05-01T06:21:28.027Z,4.00
2019-05-01T06:24:11.589Z,4.13
2019-05-01T06:26:39.463Z,4.20
2019-05-01T06:29:06.783Z,4.00
2019-05-01T06:31:33.838Z,4.80
2019-05-01T06:34:00.934Z,4.07
2019-05-01T06:36:27.936Z,3.80
2019-05-01T06:38:55.054Z,3.70
2019-05-01T06:41:22.109Z,4.03
2019-05-01T06:44:02.337Z,3.70
2019-05-01T06:46:58.369Z,3.67
2019-05-01T06:49:47.590Z,4.10
2019-05-01T06:52:17.777Z,3.73
2019-05-01T06:54:47.884Z,4.20
2019-05-01T06:57:13.748Z,3.90
2019-05-01T06:59:40.779Z,4.03
2019-05-01T07:02:07.859Z,3.87
2019-05-01T07:04:37.742Z,3.50
2019-05-01T07:07:06.790Z,3.90
2019-05-01T07:09:32.774Z,3.60
2019-05-01T07:12:00.019Z,3.43
2019-05-01T07:14:27.072Z,3.60
2019-05-01T07:16:54.097Z,3.10
2019-05-01T07:19:41.970Z,3.30
2019-05-01T07:22:09.251Z,3.73
2019-05-01T07:24:36.307Z,4.00
2019-05-01T07:27:03.366Z,3.53
2019-05-01T07:29:33.008Z,3.00
2019-05-01T07:32:01.666Z,3.63
2019-05-01T07:34:28.969Z,3.83
2019-05-01T07:36:56.062Z,4.07
2019-05-01T07:39:23.074Z,4.13
2019-05-01T07:41:50.120Z,2.73
2019-05-01T07:44:33.798Z,3.53
2019-05-01T07:47:19.808Z,4.13
2019-05-01T07:49:54.600Z,3.20
2019-05-01T07:52:21.632Z,3.50
2019-05-01T07:54:48.628Z,3.33
2019-05-01T07:57:15.640Z,3.30
2019-05-01T07:59:42.710Z,4.07
2019-05-01T08:02:12.193Z,3.83
2019-05-01T08:04:39.255Z,3.47
2019-05-01T08:07:06.282Z,3.97
2019-05-01T08:09:33.333Z,3.33
2019-05-01T08:12:00.342Z,3.80
2019-05-01T08:14:27.770Z,3.47
2019-05-01T08:16:54.782Z,3.50
2019-05-01T08:19:29.810Z,3.83
2019-05-01T08:22:03.063Z,3.57
2019-05-01T08:24:30.331Z,3.73
2019-05-01T08:26:57.349Z,3.80
2019-05-01T08:29:43.890Z,3.40
2019-05-01T08:32:29.055Z,3.03
2019-05-01T08:35:00.613Z,3.10
2019-05-01T08:37:27.976Z,3.40
2019-05-01T08:39:55.030Z,3.00
2019-05-01T08:42:22.058Z,3.07
2019-05-01T08:45:07.233Z,3.83
2019-05-01T08:47:35.707Z,3.50
2019-05-01T08:50:19.880Z,3.17
2019-05-01T08:52:47.487Z,3.50
2019-05-01T08:55:14.940Z,3.00
2019-05-01T08:57:41.957Z,3.77
2019-05-01T09:00:09.134Z,2.90
2019-05-01T09:02:36.798Z,2.90
2019-05-01T09:05:07.142Z,3.17
2019-05-01T09:07:34.003Z,3.33
2019-05-01T09:10:01.091Z,3.00
2019-05-01T09:12:28.100Z,3.20
2019-05-01T09:14:55.163Z,3.20
2019-05-01T09:17:22.223Z,3.03
2019-05-01T09:19:49.256Z,3.37
2019-05-01T09:22:16.321Z,2.90
2019-05-01T09:24:43.335Z,3.03
2019-05-01T09:27:31.165Z,3.10
2019-05-01T09:29:59.276Z,3.30
2019-05-01T09:32:26.391Z,3.57
2019-05-01T09:34:53.416Z,2.80
2019-05-01T09:37:20.531Z,3.10
2019-05-01T09:39:47.605Z,2.97
2019-05-01T09:42:22.724Z,3.33
2019-05-01T09:44:43.584Z,3.20
2019-05-01T09:47:11.004Z,3.30
2019-05-01T09:49:38.027Z,2.80
2019-05-01T09:52:23.397Z,2.40
2019-05-01T09:54:55.608Z,2.70
2019-05-01T09:57:22.599Z,3.00
2019-05-01T09:59:49.704Z,3.10
2019-05-01T10:02:16.709Z,2.83
2019-05-01T10:04:43.749Z,2.90
2019-05-01T10:07:10.894Z,3.20
2019-05-01T10:09:37.945Z,2.90
2019-05-01T10:12:11.657Z,3.10
2019-05-01T10:14:36.307Z,2.90
2019-05-01T10:17:04.541Z,2.83
2019-05-01T10:19:31.548Z,2.87
2019-05-01T10:22:02.341Z,3.43
2019-05-01T10:24:27.488Z,3.10
2019-05-01T10:27:00.072Z,2.87
2019-05-01T10:29:47.829Z,2.80
2019-05-01T10:32:25.018Z,3.73
2019-05-01T10:35:07.492Z,3.10
2019-05-01T10:37:35.478Z,3.03
2019-05-01T10:40:02.695Z,3.30
2019-05-01T10:42:29.776Z,3.10
2019-05-01T10:44:56.792Z,2.80
2019-05-01T10:47:23.881Z,3.37
2019-05-01T10:49:50.889Z,3.77
2019-05-01T10:52:17.924Z,3.23
2019-05-01T10:54:46.493Z,2.97
2019-05-01T10:57:13.822Z,3.30
2019-05-01T10:59:40.893Z,3.27
2019-05-01T11:02:09.460Z,2.90
2019-05-01T11:04:36.557Z,3.00
2019-05-01T11:07:03.639Z,3.43
2019-05-01T11:09:30.692Z,2.53
2019-05-01T11:11:57.751Z,3.20
2019-05-01T11:14:24.834Z,2.93
2019-05-01T11:16:51.900Z,2.93
2019-05-01T11:19:18.991Z,3.07
2019-05-01T11:21:46.057Z,3.20
2019-05-01T11:24:13.064Z,2.90
2019-05-01T11:26:40.143Z,2.80
2019-05-01T11:29:07.159Z,3.07
2019-05-01T11:31:42.061Z,2.70
2019-05-01T11:34:27.016Z,3.00
2019-05-01T11:37:16.205Z,3.27
2019-05-01T11:39:52.358Z,2.63
2019-05-01T11:42:19.475Z,2.73
2019-05-01T11:44:46.512Z,2.87
2019-05-01T11:47:13.662Z,3.00
2019-05-01T11:49:40.676Z,3.30
2019-05-01T11:52:07.781Z,3.00
2019-05-01T11:54:35.284Z,3.07
2019-05-01T11:57:02.358Z,3.10
2019-05-01T11:59:29.425Z,3.20
2019-05-01T12:01:56.539Z,2.97
2019-05-01T12:04:23.670Z,3.37
2019-05-01T12:06:50.835Z,2.87
2019-05-01T12:09:18.492Z,3.03
2019-05-01T12:11:47.596Z,3.00
2019-05-01T12:14:15.311Z,2.87
2019-05-01T12:16:59.610Z,3.20
2019-05-01T12:19:26.802Z,2.83
2019-05-01T12:21:53.835Z,3.50
2019-05-01T12:24:20.906Z,2.97
2019-05-01T12:26:47.974Z,3.27
2019-05-01T12:29:15.054Z,3.30
2019-05-01T12:31:42.095Z,2.80
2019-05-01T12:34:09.160Z,3.07
2019-05-01T12:36:36.838Z,2.73
2019-05-01T12:39:05.041Z,3.03
2019-05-01T12:41:39.961Z,2.97
2019-05-01T12:44:07.080Z,3.13
2019-05-01T12:46:39.962Z,2.83
2019-05-01T12:49:07.142Z,3.00
2019-05-01T12:51:34.675Z,3.10
2019-05-01T12:54:30.070Z,2.93
2019-05-01T12:56:57.229Z,3.23
2019-05-01T12:59:24.315Z,2.70
2019-05-01T13:01:51.436Z,3.20
2019-05-01T13:04:18.500Z,2.90
2019-05-01T13:06:49.494Z,2.77
2019-05-01T13:09:14.455Z,2.87
2019-05-01T13:11:41.507Z,3.03
2019-05-01T13:14:08.547Z,3.17
2019-05-01T13:16:35.636Z,3.23
2019-05-01T13:19:02.672Z,2.80
2019-05-01T13:21:29.756Z,3.20
2019-05-01T13:23:56.799Z,2.87
2019-05-01T13:26:32.726Z,3.00
2019-05-01T13:29:07.403Z,3.47
2019-05-01T13:31:39.545Z,2.97
2019-05-01T13:34:07.032Z,2.97
2019-05-01T13:36:34.055Z,2.70
2019-05-01T13:39:01.572Z,3.03
2019-05-01T13:41:28.610Z,3.07
2019-05-01T13:43:55.799Z,2.90
2019-05-01T13:46:22.859Z,2.53
2019-05-01T13:48:49.889Z,3.57
2019-05-01T13:51:16.916Z,3.00
2019-05-01T13:53:43.996Z,2.40
2019-05-01T13:56:11.256Z,2.87
2019-05-01T13:58:38.411Z,3.27
2019-05-01T14:01:05.502Z,2.90
2019-05-01T14:03:32.539Z,2.90
2019-05-01T14:05:59.625Z,2.40
2019-05-01T14:08:26.654Z,2.60
2019-05-01T14:10:53.720Z,2.90
2019-05-01T14:13:20.765Z,2.80
2019-05-01T14:15:47.948Z,2.87
2019-05-01T14:18:14.994Z,2.80
2019-05-01T14:20:57.294Z,2.40
2019-05-01T14:23:43.805Z,2.93
2019-05-01T14:26:10.882Z,2.40
2019-05-01T14:28:37.921Z,3.57
2019-05-01T14:31:05.105Z,2.70
2019-05-01T14:33:32.144Z,2.50
2019-05-01T14:35:59.235Z,2.80
2019-05-01T14:38:26.290Z,2.63
2019-05-01T14:40:53.335Z,2.80
2019-05-01T14:43:20.414Z,2.20
2019-05-01T14:45:47.481Z,2.40
2019-05-01T14:48:14.656Z,2.70
2019-05-01T14:50:41.690Z,3.00
2019-05-01T14:53:08.989Z,2.83
2019-05-01T14:55:36.140Z,2.50
2019-05-01T14:58:03.430Z,2.53
2019-05-01T15:00:30.764Z,2.90
2019-05-01T15:02:57.869Z,2.57
2019-05-01T15:05:24.928Z,2.80
2019-05-01T15:07:52.105Z,2.60
2019-05-01T15:10:19.182Z,2.60
2019-05-01T15:12:48.090Z,2.70
2019-05-01T15:15:43.695Z,2.80
2019-05-01T15:18:36.065Z,2.43
2019-05-01T15:21:03.207Z,2.80
2019-05-01T15:23:30.305Z,2.40
2019-05-01T15:25:57.342Z,2.20
2019-05-01T15:28:24.414Z,3.10
2019-05-01T15:30:51.699Z,2.90
2019-05-01T15:33:18.813Z,2.67
2019-05-01T15:35:45.838Z,2.07
2019-05-01T15:38:12.910Z,3.33
2019-05-01T15:40:46.946Z,2.90
2019-05-01T15:43:42.420Z,2.83
2019-05-01T15:46:09.478Z,2.60
2019-05-01T15:48:36.535Z,2.43
2019-05-01T15:51:03.593Z,2.33
2019-05-01T15:53:30.662Z,2.63
2019-05-01T15:55:57.771Z,2.30
2019-05-01T15:58:24.967Z,2.60
2019-05-01T16:00:52.169Z,2.33
2019-05-01T16:03:19.208Z,3.03
2019-05-01T16:05:46.243Z,2.37
2019-05-01T16:08:13.300Z,2.70
2019-05-01T16:10:54.640Z,2.70
2019-05-01T16:13:21.703Z,2.67
2019-05-01T16:15:48.878Z,2.40
2019-05-01T16:18:15.898Z,2.10
2019-05-01T16:20:42.974Z,2.50
2019-05-01T16:23:09.996Z,2.40
2019-05-01T16:25:37.026Z,3.00
2019-05-01T16:28:05.586Z,2.30
2019-05-01T16:30:32.731Z,1.90
2019-05-01T16:32:59.809Z,2.47
2019-05-01T16:35:26.841Z,2.70
2019-05-01T16:37:56.090Z,2.30
2019-05-01T16:40:51.445Z,2.43
2019-05-01T16:43:18.539Z,2.40
2019-05-01T16:45:45.594Z,3.00
2019-05-01T16:48:12.617Z,2.97
2019-05-01T16:50:40.139Z,2.30
2019-05-01T16:53:07.169Z,2.90
2019-05-01T16:55:34.216Z,2.40
2019-05-01T16:58:01.363Z,2.20
2019-05-01T17:00:46.741Z,2.63
2019-05-01T17:03:21.467Z,2.40
2019-05-01T17:06:05.783Z,2.33
2019-05-01T17:08:58.334Z,2.37
2019-05-01T17:11:29.420Z,2.77
2019-05-01T17:13:56.678Z,2.17
2019-05-01T17:16:23.716Z,2.37
2019-05-01T17:18:50.832Z,2.20
2019-05-01T17:21:17.874Z,2.20
2019-05-01T17:23:45.090Z,2.13
2019-05-01T17:26:12.148Z,2.60
2019-05-01T17:28:39.208Z,2.30
2019-05-01T17:31:06.276Z,2.40
2019-05-01T17:33:33.358Z,2.77
2019-05-01T17:36:00.465Z,2.37
2019-05-01T17:38:27.506Z,2.20
2019-05-01T17:40:54.585Z,2.40
2019-05-01T17:43:21.782Z,2.47
2019-05-01T17:45:48.848Z,2.30
2019-05-01T17:48:15.868Z,2.90
2019-05-01T17:50:42.996Z,2.20
2019-05-01T17:53:10.043Z,1.90
2019-05-01T17:55:37.197Z,2.70
2019-05-01T17:58:04.325Z,2.10
2019-05-01T18:00:59.556Z,2.77
2019-05-01T18:03:44.494Z,2.30
2019-05-01T18:06:14.414Z,2.37
2019-05-01T18:08:41.471Z,2.00
2019-05-01T18:11:09.381Z,2.10
2019-05-01T18:13:37.425Z,2.37
2019-05-01T18:16:04.481Z,2.30
2019-05-01T18:18:31.541Z,2.50
2019-05-01T18:20:58.720Z,2.20
2019-05-01T18:23:47.587Z,1.90
2019-05-01T18:26:38.654Z,1.90
2019-05-01T18:29:40.131Z,2.20
2019-05-01T18:32:10.147Z,1.50
2019-05-01T18:34:38.353Z,2.60
2019-05-01T18:37:14.013Z,2.30
2019-05-01T18:39:41.104Z,2.40
2019-05-01T18:42:11.055Z,2.33
2019-05-01T18:44:42.348Z,1.90
2019-05-01T18:47:07.119Z,2.43
2019-05-01T18:49:34.227Z,2.00
2019-05-01T18:52:01.318Z,2.37
2019-05-01T18:54:30.465Z,2.10
2019-05-01T18:56:57.230Z,2.30
2019-05-01T18:59:24.342Z,2.20
2019-05-01T19:01:51.367Z,2.07
2019-05-01T19:04:23.081Z,1.90
2019-05-01T19:06:47.340Z,1.80
2019-05-01T19:09:15.395Z,2.33
2019-05-01T19:11:42.674Z,2.43
2019-05-01T19:14:10.352Z,2.30
2019-05-01T19:16:39.921Z,2.40
2019-05-01T19:19:06.297Z,2.40
2019-05-01T19:21:35.168Z,1.90
2019-05-01T19:24:02.512Z,2.50
2019-05-01T19:26:31.280Z,2.80
2019-05-01T19:28:58.333Z,2.20
2019-05-01T19:31:25.390Z,2.67
2019-05-01T19:33:52.501Z,2.67
2019-05-01T19:36:19.556Z,2.70
2019-05-01T19:38:46.614Z,2.30
2019-05-01T19:41:14.343Z,2.93
2019-05-01T19:43:42.148Z,2.37
2019-05-01T19:46:09.413Z,2.10
2019-05-01T19:48:36.500Z,2.13
2019-05-01T19:51:03.727Z,1.90
2019-05-01T19:53:31.081Z,2.77
2019-05-01T19:55:58.418Z,2.30
2019-05-01T19:58:26.138Z,1.90
2019-05-01T20:00:54.172Z,2.80
2019-05-01T20:03:21.225Z,2.30
2019-05-01T20:05:49.082Z,2.00
2019-05-01T20:08:16.149Z,2.27
2019-05-01T20:10:43.196Z,2.50
2019-05-01T20:13:12.220Z,2.00
2019-05-01T20:15:39.086Z,2.50
2019-05-01T20:18:06.118Z,2.40
2019-05-01T20:20:33.177Z,2.17
2019-05-01T20:23:00.295Z,2.13
2019-05-01T20:25:27.309Z,1.77
2019-05-01T20:27:54.372Z,2.17
2019-05-01T20:30:21.540Z,2.43
2019-05-01T20:32:48.586Z,2.57
2019-05-01T20:35:15.744Z,2.50
2019-05-01T20:37:42.803Z,2.03
2019-05-01T20:40:11.126Z,2.10
2019-05-01T20:42:39.654Z,1.73
2019-05-01T20:45:12.824Z,2.23
2019-05-01T20:47:40.027Z,2.53
2019-05-01T20:50:04.532Z,2.47
2019-05-01T20:52:32.187Z,2.20
2019-05-01T20:54:59.303Z,1.87
2019-05-01T20:57:30.400Z,3.23
2019-05-01T20:59:57.494Z,2.00
2019-05-01T21:02:24.568Z,2.43
2019-05-01T21:04:57.770Z,2.67
2019-05-01T21:07:29.572Z,2.00
2019-05-01T21:09:57.718Z,1.90
2019-05-01T21:12:26.006Z,2.30
2019-05-01T21:14:53.062Z,1.87
2019-05-01T21:17:20.116Z,2.30
2019-05-01T21:19:47.240Z,3.43
2019-05-01T21:22:14.396Z,2.10
2019-05-01T21:24:41.441Z,1.93
2019-05-01T21:27:08.524Z,2.17
2019-05-01T21:29:35.578Z,2.13
2019-05-01T21:32:03.530Z,1.90
2019-05-01T21:34:30.707Z,2.17
2019-05-01T21:36:57.766Z,2.10
2019-05-01T21:39:26.967Z,2.10
2019-05-01T21:41:53.662Z,2.10
2019-05-01T21:44:20.699Z,1.93
2019-05-01T21:46:47.855Z,2.37
2019-05-01T21:49:14.903Z,2.20
2019-05-01T21:51:45.867Z,1.70
2019-05-01T21:54:11.143Z,1.53
2019-05-01T21:56:41.479Z,1.40
2019-05-01T21:59:08.486Z,2.07
2019-05-01T22:01:36.440Z,2.13
2019-05-01T22:04:03.723Z,2.20
2019-05-01T22:06:30.754Z,2.73
2019-05-01T22:08:58.106Z,3.23
2019-05-01T22:11:25.143Z,2.30
2019-05-01T22:13:55.060Z,2.10
2019-05-01T22:16:24.211Z,2.07
2019-05-01T22:18:57.740Z,2.10
2019-05-01T22:21:30.472Z,2.77
2019-05-01T22:24:29.089Z,2.30
2019-05-01T22:27:03.218Z,2.63
2019-05-01T22:29:34.144Z,1.93
2019-05-01T22:32:27.774Z,3.00
2019-05-01T22:35:02.669Z,3.80
2019-05-01T22:37:29.712Z,2.67
2019-05-01T22:40:03.331Z,2.33
2019-05-01T22:42:30.397Z,2.00
2019-05-01T22:44:57.430Z,2.43
2019-05-01T22:47:24.522Z,1.70
2019-05-01T22:49:51.649Z,2.23
2019-05-01T22:52:18.699Z,1.80
2019-05-01T22:54:48.933Z,2.47
2019-05-01T22:57:14.759Z,2.37
2019-05-01T22:59:41.958Z,2.00
2019-05-01T23:02:24.090Z,2.00
2019-05-01T23:04:52.124Z,1.90
2019-05-01T23:07:18.601Z,1.87
2019-05-01T23:09:45.736Z,2.37
2019-05-01T23:12:12.782Z,1.80
2019-05-01T23:14:39.831Z,1.70
2019-05-01T23:17:26.289Z,1.63
2019-05-01T23:19:53.427Z,2.00
2019-05-01T23:22:22.331Z,1.53
2019-05-01T23:24:49.447Z,1.90
2019-05-01T23:27:16.531Z,1.63
2019-05-01T23:29:43.653Z,2.20
2019-05-01T23:32:10.709Z,1.70
2019-05-01T23:34:37.806Z,2.03
2019-05-01T23:37:04.900Z,1.90
2019-05-01T23:39:39.796Z,1.87
2019-05-01T23:42:00.810Z,2.07
2019-05-01T23:44:27.864Z,1.87
2019-05-01T23:46:54.934Z,1.80
2019-05-01T23:49:21.973Z,2.00
2019-05-01T23:51:49.201Z,2.27
2019-05-01T23:54:16.225Z,1.70
2019-05-01T23:56:43.271Z,1.93
2019-05-01T23:59:10.339Z,2.13
